createdAt,value
2023-05-25T00:00:23.922Z,0.00
2023-05-25T00:01:24.170Z,0.00
2023-05-25T00:02:24.629Z,0.00
2023-05-25T00:03:24.750Z,0.00
2023-05-25T00:04:24.988Z,0.00
2023-05-25T00:05:25.323Z,0.00
2023-05-25T00:06:25.613Z,0.00
2023-05-25T00:07:25.873Z,0.00
2023-05-25T00:08:26.107Z,0.00
2023-05-25T00:09:26.517Z,0.00
2023-05-25T00:10:26.725Z,0.00
2023-05-25T00:11:26.985Z,0.00
2023-05-25T00:12:27.225Z,0.00
2023-05-25T00:13:27.475Z,0.00
2023-05-25T00:14:34.759Z,0.00
2023-05-25T00:15:30.603Z,0.00
2023-05-25T00:16:28.340Z,0.00
2023-05-25T00:17:30.331Z,0.00
2023-05-25T00:18:28.864Z,0.00
2023-05-25T00:19:29.223Z,0.00
2023-05-25T00:20:29.497Z,0.00
2023-05-25T00:21:29.764Z,0.00
2023-05-25T00:22:29.992Z,0.00
2023-05-25T00:23:30.222Z,0.00
2023-05-25T00:24:30.439Z,0.00
2023-05-25T00:25:30.776Z,0.00
2023-05-25T00:26:31.140Z,0.00
2023-05-25T00:27:31.352Z,0.00
2023-05-25T00:28:31.748Z,0.00
2023-05-25T00:29:31.960Z,0.00
2023-05-25T00:30:32.225Z,0.00
2023-05-25T00:31:32.532Z,0.00
2023-05-25T00:32:32.776Z,0.00
2023-05-25T00:33:32.977Z,0.00
2023-05-25T00:34:33.198Z,0.00
2023-05-25T00:35:33.534Z,0.00
2023-05-25T00:36:33.882Z,0.00
2023-05-25T00:37:34.159Z,0.00
2023-05-25T00:38:34.377Z,0.00
2023-05-25T00:39:34.716Z,0.00
2023-05-25T00:40:34.997Z,0.00
2023-05-25T00:41:35.250Z,0.00
2023-05-25T00:42:35.468Z,0.00
2023-05-25T00:43:35.730Z,0.00
2023-05-25T00:44:35.947Z,0.00
2023-05-25T00:45:36.323Z,0.00
2023-05-25T00:46:36.617Z,0.00
2023-05-25T00:47:36.831Z,0.00
2023-05-25T00:48:37.973Z,0.00
2023-05-25T00:49:37.298Z,0.00
2023-05-25T00:50:37.689Z,0.00
2023-05-25T00:51:38.093Z,0.00
2023-05-25T00:52:38.232Z,0.00
2023-05-25T00:53:38.465Z,0.00
2023-05-25T00:54:39.198Z,0.00
2023-05-25T00:55:38.931Z,0.00
2023-05-25T00:56:39.292Z,0.00
2023-05-25T00:57:39.510Z,0.00
2023-05-25T00:58:39.882Z,0.00
2023-05-25T00:59:40.091Z,0.00
2023-05-25T01:00:40.429Z,0.00
2023-05-25T01:01:40.687Z,0.00
2023-05-25T01:02:40.998Z,0.00
2023-05-25T01:03:41.291Z,0.00
2023-05-25T01:04:42.475Z,0.00
2023-05-25T01:05:41.953Z,0.00
2023-05-25T01:06:42.165Z,0.00
2023-05-25T01:07:42.413Z,0.00
2023-05-25T01:08:42.678Z,0.00
2023-05-25T01:09:42.887Z,0.00
2023-05-25T01:10:43.146Z,0.00
2023-05-25T01:11:43.391Z,0.00
2023-05-25T01:12:43.639Z,0.00
2023-05-25T01:13:43.872Z,0.00
2023-05-25T01:14:44.211Z,0.00
2023-05-25T01:15:44.714Z,0.00
2023-05-25T01:16:44.839Z,0.00
2023-05-25T01:17:45.043Z,0.00
2023-05-25T01:18:45.259Z,0.00
2023-05-25T01:19:49.573Z,0.00
2023-05-25T01:20:46.842Z,0.00
2023-05-25T01:21:46.136Z,0.00
2023-05-25T01:22:46.321Z,0.00
2023-05-25T01:23:46.577Z,0.00
2023-05-25T01:24:46.799Z,0.00
2023-05-25T01:25:47.044Z,0.00
2023-05-25T01:26:47.280Z,0.00
2023-05-25T01:27:47.529Z,0.00
2023-05-25T01:28:47.767Z,0.00
2023-05-25T01:29:47.983Z,0.00
2023-05-25T01:30:48.331Z,0.00
2023-05-25T01:31:48.616Z,0.00
2023-05-25T01:32:48.876Z,0.00
2023-05-25T01:33:49.107Z,0.00
2023-05-25T01:34:49.441Z,0.00
2023-05-25T01:35:49.660Z,0.00
2023-05-25T01:36:50.027Z,0.00
2023-05-25T01:37:50.237Z,0.00
2023-05-25T01:38:50.600Z,0.00
2023-05-25T01:39:50.819Z,0.00
2023-05-25T01:40:51.155Z,0.00
2023-05-25T01:41:51.392Z,0.00
2023-05-25T01:42:51.614Z,0.00
2023-05-25T01:43:51.843Z,0.00
2023-05-25T01:44:52.181Z,0.00
2023-05-25T01:45:52.527Z,0.00
2023-05-25T01:46:52.867Z,0.00
2023-05-25T01:47:53.157Z,0.00
2023-05-25T01:48:53.348Z,0.00
2023-05-25T01:49:53.576Z,0.00
2023-05-25T01:50:53.914Z,0.00
2023-05-25T01:51:54.241Z,0.00
2023-05-25T01:52:54.422Z,0.00
2023-05-25T01:53:54.651Z,0.00
2023-05-25T01:54:55.068Z,0.00
2023-05-25T01:55:55.300Z,0.00
2023-05-25T01:56:55.538Z,0.00
2023-05-25T01:57:55.770Z,0.00
2023-05-25T01:58:56.001Z,0.00
2023-05-25T01:59:56.245Z,0.00
2023-05-25T02:00:56.566Z,0.00
2023-05-25T02:01:56.843Z,0.00
2023-05-25T02:02:57.117Z,0.00
2023-05-25T02:03:57.334Z,0.00
2023-05-25T02:04:57.682Z,0.00
2023-05-25T02:05:57.882Z,0.00
2023-05-25T02:06:58.226Z,0.00
2023-05-25T02:07:58.447Z,0.00
2023-05-25T02:08:58.839Z,0.00
2023-05-25T02:09:59.076Z,0.00
2023-05-25T02:10:59.434Z,0.00
2023-05-25T02:11:59.667Z,0.00
2023-05-25T02:12:59.922Z,0.00
2023-05-25T02:14:00.198Z,0.00
2023-05-25T02:15:00.458Z,0.00
2023-05-25T02:16:00.708Z,0.00
2023-05-25T02:17:01.001Z,4.00
2023-05-25T02:18:01.394Z,4.00
2023-05-25T02:19:01.548Z,4.00
2023-05-25T02:20:01.869Z,0.00
2023-05-25T02:21:02.131Z,4.00
2023-05-25T02:22:02.446Z,4.00
2023-05-25T02:23:02.737Z,4.00
2023-05-25T02:24:03.134Z,4.00
2023-05-25T02:25:03.325Z,4.00
2023-05-25T02:26:03.643Z,8.00
2023-05-25T02:27:03.900Z,4.00
2023-05-25T02:28:04.197Z,8.00
2023-05-25T02:29:04.433Z,8.00
2023-05-25T02:30:04.693Z,8.00
2023-05-25T02:31:04.928Z,8.00
2023-05-25T02:32:05.168Z,12.00
2023-05-25T02:33:05.437Z,12.00
2023-05-25T02:34:05.645Z,16.00
2023-05-25T02:35:06.000Z,20.00
2023-05-25T02:36:06.218Z,20.00
2023-05-25T02:37:06.593Z,24.00
2023-05-25T02:38:06.798Z,24.00
2023-05-25T02:39:07.139Z,28.00
2023-05-25T02:40:07.378Z,32.00
2023-05-25T02:41:07.634Z,36.00
2023-05-25T02:42:07.946Z,40.00
2023-05-25T02:43:08.190Z,44.00
2023-05-25T02:44:08.419Z,52.00
2023-05-25T02:45:08.753Z,56.00
2023-05-25T02:46:09.004Z,64.00
2023-05-25T02:47:09.396Z,68.00
2023-05-25T02:48:09.591Z,80.00
2023-05-25T02:49:09.830Z,84.00
2023-05-25T02:50:10.044Z,96.00
2023-05-25T02:51:10.482Z,104.00
2023-05-25T02:52:10.699Z,112.00
2023-05-25T02:53:10.921Z,124.00
2023-05-25T02:54:11.249Z,132.00
2023-05-25T02:55:11.589Z,144.00
2023-05-25T02:56:11.830Z,160.00
2023-05-25T02:57:12.076Z,176.00
2023-05-25T02:58:12.299Z,188.00
2023-05-25T02:59:12.662Z,204.00
2023-05-25T03:00:12.886Z,220.00
2023-05-25T03:01:13.292Z,236.00
2023-05-25T03:02:13.522Z,256.00
2023-05-25T03:03:13.772Z,276.00
2023-05-25T03:04:13.977Z,296.00
2023-05-25T03:05:14.323Z,316.00
2023-05-25T03:06:14.536Z,336.00
2023-05-25T03:07:14.886Z,360.00
2023-05-25T03:08:15.099Z,384.00
2023-05-25T03:09:15.433Z,412.00
2023-05-25T03:10:15.656Z,432.00
2023-05-25T03:11:15.994Z,460.00
2023-05-25T03:12:16.238Z,488.00
2023-05-25T03:13:16.469Z,516.00
2023-05-25T03:14:16.687Z,544.00
2023-05-25T03:15:17.029Z,572.00
2023-05-25T03:16:17.372Z,604.00
2023-05-25T03:17:17.756Z,632.00
2023-05-25T03:18:17.936Z,664.00
2023-05-25T03:19:18.288Z,696.00
2023-05-25T03:20:18.537Z,728.00
2023-05-25T03:21:18.842Z,760.00
2023-05-25T03:22:20.111Z,792.00
2023-05-25T03:23:19.331Z,828.00
2023-05-25T03:24:19.595Z,860.00
2023-05-25T03:25:19.818Z,896.00
2023-05-25T03:26:20.122Z,932.00
2023-05-25T03:27:20.377Z,968.00
2023-05-25T03:28:20.611Z,1004.00
2023-05-25T03:29:20.846Z,1040.00
2023-05-25T03:30:21.093Z,1080.00
2023-05-25T03:31:21.404Z,1116.00
2023-05-25T03:32:21.896Z,1152.00
2023-05-25T03:33:21.976Z,1192.00
2023-05-25T03:34:22.198Z,1228.00
2023-05-25T03:35:22.497Z,1264.00
2023-05-25T03:36:22.714Z,1304.00
2023-05-25T03:37:23.023Z,1344.00
2023-05-25T03:38:23.278Z,1380.00
2023-05-25T03:39:23.544Z,1420.00
2023-05-25T03:40:23.779Z,1456.00
2023-05-25T03:41:24.036Z,1492.00
2023-05-25T03:42:24.375Z,1532.00
2023-05-25T03:43:24.678Z,1572.00
2023-05-25T03:44:24.962Z,1608.00
2023-05-25T03:45:25.453Z,1648.00
2023-05-25T03:46:25.590Z,1684.00
2023-05-25T03:47:25.873Z,1728.00
2023-05-25T03:48:26.103Z,1768.00
2023-05-25T03:49:26.347Z,1804.00
2023-05-25T03:50:26.602Z,1844.00
2023-05-25T03:51:26.848Z,1884.00
2023-05-25T03:52:27.104Z,1924.00
2023-05-25T03:53:27.360Z,1964.00
2023-05-25T03:54:27.596Z,2004.00
2023-05-25T03:55:27.842Z,2040.00
2023-05-25T03:56:28.087Z,2080.00
2023-05-25T03:57:28.331Z,2116.00
2023-05-25T03:58:28.616Z,2160.00
2023-05-25T03:59:28.892Z,2200.00
2023-05-25T04:00:29.336Z,2244.00
2023-05-25T04:01:29.773Z,2284.00
2023-05-25T04:02:29.655Z,2324.00
2023-05-25T04:03:29.995Z,2368.00
2023-05-25T04:04:30.199Z,2420.00
2023-05-25T04:05:30.357Z,2496.00
2023-05-25T04:06:30.588Z,2600.00
2023-05-25T04:07:30.870Z,2696.00
2023-05-25T04:08:31.170Z,2864.00
2023-05-25T04:09:31.478Z,3096.00
2023-05-25T04:10:31.737Z,3272.00
2023-05-25T04:11:32.038Z,3424.00
2023-05-25T04:12:32.361Z,3556.00
2023-05-25T04:13:32.590Z,3608.00
2023-05-25T04:14:32.838Z,3600.00
2023-05-25T04:15:33.083Z,3492.00
2023-05-25T04:16:33.423Z,3416.00
2023-05-25T04:17:33.681Z,3356.00
2023-05-25T04:18:33.890Z,3268.00
2023-05-25T04:19:34.146Z,3204.00
2023-05-25T04:20:34.407Z,3192.00
2023-05-25T04:21:34.672Z,3180.00
2023-05-25T04:22:35.002Z,3196.00
2023-05-25T04:23:35.158Z,3264.00
2023-05-25T04:24:35.404Z,3308.00
2023-05-25T04:25:35.665Z,3336.00
2023-05-25T04:26:35.907Z,3376.00
2023-05-25T04:27:36.233Z,3400.00
2023-05-25T04:28:36.404Z,3448.00
2023-05-25T04:29:36.830Z,3516.00
2023-05-25T04:30:36.967Z,3544.00
2023-05-25T04:31:37.303Z,3600.00
2023-05-25T04:32:37.951Z,3620.00
2023-05-25T04:33:37.800Z,3616.00
2023-05-25T04:34:38.056Z,3620.00
2023-05-25T04:35:38.294Z,3628.00
2023-05-25T04:36:38.546Z,3640.00
2023-05-25T04:37:38.787Z,3668.00
2023-05-25T04:38:39.042Z,3704.00
2023-05-25T04:39:39.289Z,3744.00
2023-05-25T04:40:39.607Z,3792.00
2023-05-25T04:41:39.820Z,3828.00
2023-05-25T04:42:40.066Z,3860.00
2023-05-25T04:43:46.553Z,3896.00
2023-05-25T04:44:41.629Z,3928.00
2023-05-25T04:45:41.092Z,3976.00
2023-05-25T04:46:41.263Z,4012.00
2023-05-25T04:47:41.513Z,4044.00
2023-05-25T04:48:41.652Z,4072.00
2023-05-25T04:49:41.879Z,4124.00
2023-05-25T04:50:42.113Z,4164.00
2023-05-25T04:51:42.346Z,4188.00
2023-05-25T04:52:42.541Z,4220.00
2023-05-25T04:53:42.770Z,4264.00
2023-05-25T04:54:43.056Z,4296.00
2023-05-25T04:55:43.444Z,4344.00
2023-05-25T04:56:43.494Z,4388.00
2023-05-25T04:57:43.691Z,4400.00
2023-05-25T04:58:43.923Z,4416.00
2023-05-25T04:59:44.129Z,4448.00
2023-05-25T05:00:44.582Z,4476.00
2023-05-25T05:01:44.900Z,4500.00
2023-05-25T05:02:45.051Z,4532.00
2023-05-25T05:03:45.665Z,4576.00
2023-05-25T05:04:45.411Z,4624.00
2023-05-25T05:05:45.851Z,4656.00
2023-05-25T05:06:45.866Z,4672.00
2023-05-25T05:07:46.141Z,4712.00
2023-05-25T05:08:46.376Z,4764.00
2023-05-25T05:09:46.606Z,4820.00
2023-05-25T05:10:46.830Z,4888.00
2023-05-25T05:11:47.080Z,4928.00
2023-05-25T05:12:47.302Z,4988.00
2023-05-25T05:13:47.528Z,5032.00
2023-05-25T05:14:47.740Z,5076.00
2023-05-25T05:15:47.926Z,5120.00
2023-05-25T05:16:48.398Z,5160.00
2023-05-25T05:17:48.514Z,5216.00
2023-05-25T05:18:48.715Z,5260.00
2023-05-25T05:19:48.940Z,5304.00
2023-05-25T05:20:49.132Z,5348.00
2023-05-25T05:21:49.341Z,5416.00
2023-05-25T05:22:49.561Z,5488.00
2023-05-25T05:23:49.818Z,5544.00
2023-05-25T05:24:49.987Z,5600.00
2023-05-25T05:25:50.199Z,5656.00
2023-05-25T05:26:58.335Z,5720.00
2023-05-25T05:27:51.626Z,5728.00
2023-05-25T05:28:50.892Z,5756.00
2023-05-25T05:29:51.105Z,5804.00
2023-05-25T05:30:51.347Z,5848.00
2023-05-25T05:31:51.580Z,5892.00
2023-05-25T05:32:51.808Z,5956.00
2023-05-25T05:33:51.999Z,5988.00
2023-05-25T05:34:52.305Z,6052.00
2023-05-25T05:35:52.500Z,6096.00
2023-05-25T05:36:57.239Z,6152.00
2023-05-25T05:37:53.928Z,6208.00
2023-05-25T05:38:53.139Z,6264.00
2023-05-25T05:39:53.336Z,6332.00
2023-05-25T05:40:53.656Z,6424.00
2023-05-25T05:41:53.844Z,6524.00
2023-05-25T05:42:54.179Z,6568.00
2023-05-25T05:43:54.373Z,6572.00
2023-05-25T05:44:54.696Z,6620.00
2023-05-25T05:45:54.909Z,6720.00
2023-05-25T05:46:55.232Z,6820.00
2023-05-25T05:47:55.528Z,6908.00
2023-05-25T05:48:55.719Z,7000.00
2023-05-25T05:49:55.904Z,7080.00
2023-05-25T05:50:56.231Z,7128.00
2023-05-25T05:51:56.444Z,7208.00
2023-05-25T05:52:56.662Z,7292.00
2023-05-25T05:53:56.841Z,7372.00
2023-05-25T05:54:57.151Z,7424.00
2023-05-25T05:55:57.401Z,7516.00
2023-05-25T05:56:57.623Z,7648.00
2023-05-25T05:57:57.814Z,7788.00
2023-05-25T05:58:58.032Z,7924.00
2023-05-25T05:59:58.212Z,8052.00
2023-05-25T06:00:58.422Z,8180.00
2023-05-25T06:01:58.775Z,8332.00
2023-05-25T06:02:58.949Z,8484.00
2023-05-25T06:03:59.150Z,8580.00
2023-05-25T06:04:59.350Z,8660.00
2023-05-25T06:05:59.574Z,8872.00
2023-05-25T06:06:59.734Z,10676.00
2023-05-25T06:08:00.058Z,15048.00
2023-05-25T06:09:00.303Z,18368.00
2023-05-25T06:10:00.450Z,19296.00
2023-05-25T06:11:00.741Z,19904.00
2023-05-25T06:12:01.032Z,20576.00
2023-05-25T06:13:01.321Z,21728.00
2023-05-25T06:14:01.500Z,23552.00
2023-05-25T06:15:10.398Z,25216.00
2023-05-25T06:16:01.930Z,26560.00
2023-05-25T06:17:02.395Z,27424.00
2023-05-25T06:18:02.402Z,28640.00
2023-05-25T06:19:02.537Z,29600.00
2023-05-25T06:20:02.746Z,29792.00
2023-05-25T06:21:02.880Z,30016.00
2023-05-25T06:22:03.057Z,30784.00
2023-05-25T06:23:03.310Z,32000.00
2023-05-25T06:24:03.473Z,33152.00
2023-05-25T06:25:03.652Z,34144.00
2023-05-25T06:26:03.791Z,34432.00
2023-05-25T06:27:03.935Z,34816.00
2023-05-25T06:28:04.205Z,34976.00
2023-05-25T06:29:04.348Z,35712.00
2023-05-25T06:30:04.498Z,36384.00
2023-05-25T06:31:04.633Z,37024.00
2023-05-25T06:32:04.826Z,37376.00
2023-05-25T06:33:05.067Z,38816.00
2023-05-25T06:34:05.111Z,38912.00
2023-05-25T06:35:05.256Z,39424.00
2023-05-25T06:36:05.400Z,40864.00
2023-05-25T06:37:05.546Z,41184.00
2023-05-25T06:38:05.726Z,42528.00
2023-05-25T06:39:05.874Z,43296.00
2023-05-25T06:40:06.004Z,43680.00
2023-05-25T06:41:06.259Z,45088.00
2023-05-25T06:42:06.356Z,46176.00
2023-05-25T06:43:06.617Z,47552.00
2023-05-25T06:44:06.764Z,46464.00
2023-05-25T06:45:06.968Z,45888.00
2023-05-25T06:46:07.117Z,45408.00
2023-05-25T06:47:07.220Z,44512.00
2023-05-25T06:48:07.394Z,43968.00
2023-05-25T06:49:07.524Z,43552.00
2023-05-25T06:50:07.847Z,43104.00
2023-05-25T06:51:07.884Z,44768.00
2023-05-25T06:52:07.995Z,45888.00
2023-05-25T06:53:08.149Z,48544.00
2023-05-25T06:54:08.257Z,49056.00
2023-05-25T06:55:08.399Z,51584.00
2023-05-25T06:56:08.557Z,53632.00
2023-05-25T06:57:08.706Z,53632.00
2023-05-25T06:58:08.810Z,53440.00
2023-05-25T06:59:08.938Z,52032.00
2023-05-25T07:00:09.058Z,51168.00
2023-05-25T07:01:09.189Z,51008.00
2023-05-25T07:02:09.265Z,52928.00
2023-05-25T07:03:09.421Z,54240.00
2023-05-25T07:04:09.504Z,55424.00
2023-05-25T07:05:09.665Z,56160.00
2023-05-25T07:06:09.727Z,55584.00
2023-05-25T07:07:09.846Z,56416.00
2023-05-25T07:08:09.965Z,56736.00
2023-05-25T07:09:10.103Z,57920.00
2023-05-25T07:10:10.184Z,60640.00
2023-05-25T07:11:10.285Z,62624.00
2023-05-25T07:12:10.376Z,62656.00
2023-05-25T07:13:10.498Z,61536.00
2023-05-25T07:14:10.584Z,60416.00
2023-05-25T07:15:10.682Z,61024.00
2023-05-25T07:16:10.820Z,59008.00
2023-05-25T07:17:10.882Z,61728.00
2023-05-25T07:18:11.006Z,63072.00
2023-05-25T07:19:11.100Z,63584.00
2023-05-25T07:20:11.282Z,62464.00
2023-05-25T07:21:11.343Z,59520.00
2023-05-25T07:22:11.444Z,59296.00
2023-05-25T07:23:11.562Z,59008.00
2023-05-25T07:24:11.657Z,58080.00
2023-05-25T07:25:11.743Z,57568.00
2023-05-25T07:26:11.815Z,58752.00
2023-05-25T07:27:11.999Z,58848.00
2023-05-25T07:28:12.103Z,60096.00
2023-05-25T07:29:12.275Z,61568.00
2023-05-25T07:30:12.367Z,62688.00
2023-05-25T07:31:12.552Z,63552.00
2023-05-25T07:32:12.608Z,63776.00
2023-05-25T07:33:12.714Z,63520.00
2023-05-25T07:34:12.785Z,64256.00
2023-05-25T07:35:12.888Z,63104.00
2023-05-25T07:36:12.959Z,63872.00
2023-05-25T07:37:13.162Z,62752.00
2023-05-25T07:38:13.242Z,62720.00
2023-05-25T07:39:13.330Z,64864.00
2023-05-25T07:40:13.398Z,64640.00
2023-05-25T07:41:13.505Z,64288.00
2023-05-25T07:42:13.536Z,65472.00
2023-05-25T07:43:13.633Z,65984.00
2023-05-25T07:44:13.715Z,66944.00
2023-05-25T07:45:13.792Z,67872.00
2023-05-25T07:46:13.849Z,69664.00
2023-05-25T07:47:13.961Z,70080.00
2023-05-25T07:48:14.064Z,70432.00
2023-05-25T07:49:14.135Z,70112.00
2023-05-25T07:50:14.215Z,68416.00
2023-05-25T07:51:14.285Z,67968.00
2023-05-25T07:52:14.381Z,67520.00
2023-05-25T07:53:14.462Z,69280.00
2023-05-25T07:54:14.535Z,69696.00
2023-05-25T07:55:14.674Z,71296.00
2023-05-25T07:56:14.713Z,71488.00
2023-05-25T07:57:14.805Z,72096.00
2023-05-25T07:58:14.871Z,73088.00
2023-05-25T07:59:14.956Z,72896.00
2023-05-25T08:00:15.033Z,44896.00
2023-05-25T08:01:15.121Z,78976.00
2023-05-25T08:02:15.232Z,24384.00
2023-05-25T08:03:15.384Z,19296.00
2023-05-25T08:04:15.583Z,20704.00
2023-05-25T08:05:15.557Z,28256.00
2023-05-25T08:06:15.624Z,61984.00
2023-05-25T08:07:15.697Z,76416.00
2023-05-25T08:08:15.802Z,72320.00
2023-05-25T08:09:16.471Z,70880.00
2023-05-25T08:10:16.056Z,71936.00
2023-05-25T08:11:16.143Z,78240.00
2023-05-25T08:12:37.970Z,75168.00
2023-05-25T08:13:17.306Z,75744.00
2023-05-25T08:14:16.404Z,75520.00
2023-05-25T08:15:16.743Z,22336.00
2023-05-25T08:16:17.625Z,17376.00
2023-05-25T08:17:16.734Z,16284.00
2023-05-25T08:18:16.804Z,16088.00
2023-05-25T08:19:16.888Z,15792.00
2023-05-25T08:20:17.130Z,15732.00
2023-05-25T08:21:17.066Z,16768.00
2023-05-25T08:22:17.187Z,19392.00
2023-05-25T08:23:17.289Z,24608.00
2023-05-25T08:24:17.421Z,84800.00
2023-05-25T08:25:17.525Z,87296.00
2023-05-25T08:27:17.716Z,23296.00
2023-05-25T08:28:17.809Z,18912.00
2023-05-25T08:29:17.929Z,17280.00
2023-05-25T08:30:18.034Z,17024.00
2023-05-25T08:31:18.122Z,16928.00
2023-05-25T08:32:18.203Z,16768.00
2023-05-25T08:33:18.319Z,16768.00
2023-05-25T08:34:18.432Z,17024.00
2023-05-25T08:35:18.522Z,17568.00
2023-05-25T08:36:18.628Z,18240.00
2023-05-25T08:37:18.749Z,19296.00
2023-05-25T08:38:18.875Z,21344.00
2023-05-25T08:39:19.089Z,38048.00
2023-05-25T08:40:19.183Z,51968.00
2023-05-25T08:41:19.298Z,29696.00
2023-05-25T08:42:19.410Z,42400.00
2023-05-25T08:43:19.515Z,87136.00
2023-05-25T08:44:19.637Z,85952.00
2023-05-25T08:45:33.672Z,86720.00
2023-05-25T08:46:20.829Z,88928.00
2023-05-25T08:47:19.942Z,88384.00
2023-05-25T08:49:20.202Z,27872.00
2023-05-25T08:50:20.327Z,16832.00
2023-05-25T08:51:20.399Z,15624.00
2023-05-25T08:52:20.510Z,15436.00
2023-05-25T08:53:20.604Z,14992.00
2023-05-25T08:54:20.712Z,15708.00
2023-05-25T08:55:20.829Z,17728.00
2023-05-25T08:56:20.889Z,20928.00
2023-05-25T08:57:21.107Z,30656.00
2023-05-25T08:58:21.211Z,37728.00
2023-05-25T08:59:21.331Z,45344.00
2023-05-25T09:00:21.436Z,74464.00
2023-05-25T09:01:21.598Z,53088.00
2023-05-25T09:02:21.773Z,47264.00
2023-05-25T09:03:21.976Z,26592.00
2023-05-25T09:04:21.998Z,37216.00
2023-05-25T09:05:22.100Z,58528.00
2023-05-25T09:06:22.198Z,98720.00
2023-05-25T09:07:22.393Z,32000.00
2023-05-25T09:08:22.503Z,50592.00
2023-05-25T09:09:22.626Z,52352.00
2023-05-25T09:10:22.723Z,66752.00
2023-05-25T09:11:36.057Z,26112.00
2023-05-25T09:12:24.030Z,23616.00
2023-05-25T09:13:23.345Z,24288.00
2023-05-25T09:14:23.218Z,60992.00
2023-05-25T09:15:23.309Z,75360.00
2023-05-25T09:16:23.401Z,35936.00
2023-05-25T09:17:23.458Z,101184.00
2023-05-25T09:18:23.730Z,87424.00
2023-05-25T09:19:23.737Z,96192.00
2023-05-25T09:20:23.874Z,93376.00
2023-05-25T09:21:23.950Z,93760.00
2023-05-25T09:22:24.016Z,96928.00
2023-05-25T09:23:24.087Z,95840.00
2023-05-25T09:24:24.162Z,96864.00
2023-05-25T09:25:24.226Z,43264.00
2023-05-25T09:26:24.291Z,27424.00
2023-05-25T09:27:24.336Z,23136.00
2023-05-25T09:28:27.666Z,25216.00
2023-05-25T09:29:24.501Z,100608.00
2023-05-25T09:30:24.547Z,23936.00
2023-05-25T09:31:24.638Z,19776.00
2023-05-25T09:32:24.781Z,18656.00
2023-05-25T09:33:24.814Z,18560.00
2023-05-25T09:34:24.953Z,19776.00
2023-05-25T09:35:25.033Z,22656.00
2023-05-25T09:36:25.196Z,26528.00
2023-05-25T09:37:25.382Z,101952.00
2023-05-25T09:38:25.706Z,96928.00
2023-05-25T09:39:25.597Z,93600.00
2023-05-25T09:40:25.578Z,66656.00
2023-05-25T09:41:25.664Z,21152.00
2023-05-25T09:42:25.765Z,18208.00
2023-05-25T09:43:39.729Z,19168.00
2023-05-25T09:44:27.010Z,20384.00
2023-05-25T09:45:26.076Z,21280.00
2023-05-25T09:46:26.201Z,22720.00
2023-05-25T09:47:26.260Z,25024.00
2023-05-25T09:48:26.358Z,32768.00
2023-05-25T09:49:26.424Z,33568.00
2023-05-25T09:50:26.568Z,34240.00
2023-05-25T09:51:26.657Z,36160.00
2023-05-25T09:52:26.743Z,96576.00
2023-05-25T09:53:26.849Z,80032.00
2023-05-25T09:54:26.924Z,85440.00
2023-05-25T09:55:33.701Z,94752.00
2023-05-25T09:56:28.081Z,89920.00
2023-05-25T09:57:27.150Z,92576.00
2023-05-25T09:58:27.231Z,28480.00
2023-05-25T09:59:27.306Z,28608.00
2023-05-25T10:00:27.394Z,29888.00
2023-05-25T10:01:27.496Z,38560.00
2023-05-25T10:02:27.679Z,41440.00
2023-05-25T10:03:27.725Z,102944.00
2023-05-25T10:04:27.830Z,91904.00
2023-05-25T10:05:27.895Z,91616.00
2023-05-25T10:06:27.954Z,96480.00
2023-05-25T10:07:28.014Z,91264.00
2023-05-25T10:08:29.071Z,23328.00
2023-05-25T10:09:28.164Z,20096.00
2023-05-25T10:10:28.256Z,20288.00
2023-05-25T10:11:28.334Z,26848.00
2023-05-25T10:12:28.397Z,63328.00
2023-05-25T10:13:28.466Z,97280.00
2023-05-25T10:14:29.767Z,94560.00
2023-05-25T10:15:28.694Z,98144.00
2023-05-25T10:16:28.804Z,97728.00
2023-05-25T10:17:28.827Z,100224.00
2023-05-25T10:18:28.864Z,96352.00
2023-05-25T10:19:28.922Z,96928.00
2023-05-25T10:20:56.329Z,99872.00
2023-05-25T10:21:29.995Z,95616.00
2023-05-25T10:22:29.130Z,95776.00
2023-05-25T10:23:29.195Z,97632.00
2023-05-25T10:24:29.232Z,91648.00
2023-05-25T10:25:29.361Z,97440.00
2023-05-25T10:26:29.370Z,77472.00
2023-05-25T10:27:29.387Z,93824.00
2023-05-25T10:28:29.440Z,97536.00
2023-05-25T10:29:29.461Z,94432.00
2023-05-25T10:30:29.510Z,85696.00
2023-05-25T10:31:29.979Z,73280.00
2023-05-25T10:32:29.701Z,89472.00
2023-05-25T10:34:29.755Z,96032.00
2023-05-25T10:35:30.202Z,95456.00
2023-05-25T10:36:29.790Z,96960.00
2023-05-25T10:37:29.809Z,101792.00
2023-05-25T10:38:29.817Z,97280.00
2023-05-25T10:39:29.829Z,101280.00
2023-05-25T10:40:29.885Z,101952.00
2023-05-25T10:41:29.896Z,97312.00
2023-05-25T10:42:29.929Z,99776.00
2023-05-25T10:43:29.912Z,99136.00
2023-05-25T10:44:29.922Z,101056.00
2023-05-25T10:45:29.964Z,105472.00
2023-05-25T10:46:29.978Z,100704.00
2023-05-25T10:47:30.145Z,100544.00
2023-05-25T10:48:30.045Z,101600.00
2023-05-25T10:49:30.050Z,93664.00
2023-05-25T10:50:30.185Z,94912.00
2023-05-25T10:51:30.202Z,92256.00
2023-05-25T10:52:30.228Z,99872.00
2023-05-25T10:53:30.250Z,96128.00
2023-05-25T10:54:30.287Z,97792.00
2023-05-25T10:55:30.306Z,104256.00
2023-05-25T10:56:30.383Z,105792.00
2023-05-25T10:57:30.417Z,83840.00
2023-05-25T10:58:30.434Z,103296.00
2023-05-25T10:59:30.468Z,97152.00
2023-05-25T11:00:30.526Z,93024.00
2023-05-25T11:01:30.665Z,93024.00
2023-05-25T11:02:30.664Z,88544.00
2023-05-25T11:03:30.639Z,78336.00
2023-05-25T11:04:30.672Z,24640.00
2023-05-25T11:05:30.747Z,38528.00
2023-05-25T11:06:30.771Z,29472.00
2023-05-25T11:07:30.791Z,23072.00
2023-05-25T11:08:30.823Z,42368.00
2023-05-25T11:09:30.857Z,100320.00
2023-05-25T11:10:30.904Z,101984.00
2023-05-25T11:11:30.938Z,95552.00
2023-05-25T11:12:30.995Z,30624.00
2023-05-25T11:13:31.068Z,32544.00
2023-05-25T11:14:31.139Z,89376.00
2023-05-25T11:15:31.172Z,89792.00
2023-05-25T11:16:31.278Z,90464.00
2023-05-25T11:17:31.281Z,90016.00
2023-05-25T11:18:31.294Z,92288.00
2023-05-25T11:19:31.324Z,94400.00
2023-05-25T11:20:31.436Z,94880.00
2023-05-25T11:21:31.487Z,86688.00
2023-05-25T11:22:31.618Z,85088.00
2023-05-25T11:23:31.651Z,82688.00
2023-05-25T11:24:31.686Z,83712.00
2023-05-25T11:25:31.751Z,83872.00
2023-05-25T11:26:31.806Z,84160.00
2023-05-25T11:27:31.837Z,73952.00
2023-05-25T11:28:31.875Z,38912.00
2023-05-25T11:29:31.921Z,23360.00
2023-05-25T11:30:31.994Z,22240.00
2023-05-25T11:31:35.236Z,22240.00
2023-05-25T11:32:33.122Z,22272.00
2023-05-25T11:33:32.119Z,22848.00
2023-05-25T11:34:32.207Z,23616.00
2023-05-25T11:35:32.236Z,23648.00
2023-05-25T11:36:32.294Z,23520.00
2023-05-25T11:37:32.330Z,23360.00
2023-05-25T11:38:32.383Z,23008.00
2023-05-25T11:39:32.439Z,23296.00
2023-05-25T11:40:33.308Z,23584.00
2023-05-25T11:41:32.606Z,23328.00
2023-05-25T11:42:32.658Z,22304.00
2023-05-25T11:43:32.711Z,22336.00
2023-05-25T11:44:32.748Z,22720.00
2023-05-25T11:45:32.832Z,23200.00
2023-05-25T11:46:32.906Z,23200.00
2023-05-25T11:47:34.573Z,23744.00
2023-05-25T11:48:33.065Z,22912.00
2023-05-25T11:49:33.104Z,21952.00
2023-05-25T11:50:33.234Z,20544.00
2023-05-25T11:51:33.257Z,19648.00
2023-05-25T11:52:33.318Z,19232.00
2023-05-25T11:53:34.424Z,18848.00
2023-05-25T11:54:33.497Z,19808.00
2023-05-25T11:55:33.572Z,19776.00
2023-05-25T11:56:35.956Z,19616.00
2023-05-25T11:57:33.697Z,19776.00
2023-05-25T11:58:33.762Z,18624.00
2023-05-25T11:59:33.825Z,18208.00
2023-05-25T12:00:33.981Z,17568.00
2023-05-25T12:01:34.048Z,19200.00
2023-05-25T12:02:34.199Z,19776.00
2023-05-25T12:03:34.420Z,19808.00
2023-05-25T12:04:34.478Z,18048.00
2023-05-25T12:05:34.485Z,17824.00
2023-05-25T12:06:34.542Z,17280.00
2023-05-25T12:07:34.594Z,17088.00
2023-05-25T12:08:34.662Z,18272.00
2023-05-25T12:09:34.739Z,19264.00
2023-05-25T12:10:34.800Z,18592.00
2023-05-25T12:11:34.882Z,18592.00
2023-05-25T12:12:34.976Z,19168.00
2023-05-25T12:13:35.043Z,20256.00
2023-05-25T12:14:35.150Z,21856.00
2023-05-25T12:15:42.439Z,22368.00